Historyczne dane pomiarowe

Dodano dane terminowe – wersja testowa.

Dane z okresu 1951-2019

Wersja bazy: 1.34 [2019-03-16, lista zmian], aktualizacja planowana na 2019-04-15

Dane meteo z obszaru Polski uzyskane na podstawie danych udostępnionych przez Instytut Meteorologii i Gospodarki Wodnej – Państwowy Instytut Badawczy.

 

Wybierz Datę:    

       

TemperaturaWilgotnośćWiatrCiśnienieOpadyŚniegCzas trwania zjawisk
 Stacja t tx tn tng RH VA  wxwx mslp ppp RRR   cm mm wxwxwxwxwxwxwx
1959-06-13 20.2 26.7 13.5 12.8 74.0- 5.7 4.7---- 0.1------------
1959-06-14 16.4 23.9 12.0 9.9 47.0- 3.0 4.3---- 0.0------------
1959-06-15 16.8 24.2 6.1 1.5 61.5- 3.0 3.3---- 0.7------------
1959-06-16 10.3 15.0 7.9 5.9 65.5- 6.3 3.3---- 0.0------------
1959-06-17 15.4 22.2 8.4 8.5 65.3- 4.0 2.3---- 0.0------------
1959-06-18 20.7 28.7 9.0 7.3 57.3- 0.7 1.7---- 0.0------------
1959-06-19 17.9 23.7 13.5 10.7 63.8- 2.0 3.3---- 0.0------------
1959-06-20 16.0 21.6 10.9 10.7 49.8- 3.0 3.0---- 0.0------------
1959-06-21 17.1 22.6 7.4 5.8 47.5- 1.3 3.0---- 0.0------------
1959-06-22 18.8 25.3 8.3 6.5 54.8- 0.0 3.7---- 0.0------------
1959-06-23 16.0 23.2 8.2 6.6 52.0- 0.7 3.7---- 0.0------------
1959-06-24 17.6 22.0 11.8 10.5 62.8- 6.3 1.7---- 0.0------------
1959-06-25 17.1 22.9 15.2 14.6 67.0- 5.7 0.7---- 0.0------------
1959-06-26 16.8 23.4 9.8 6.8 79.5- 3.7 2.7---- 3.6------------
1959-06-27 20.1 28.2 10.8 8.9 60.5- 3.0 3.0---- 0.0------------
1959-06-28 18.5 23.8 13.9 12.5 73.3- 6.0 2.3---- 0.0------------
1959-06-29 16.2 22.2 11.4 9.6 89.8- 7.3 1.3---- 7.1------------
1959-06-30 15.5 20.0 13.3 12.5 88.8- 7.3 3.0---- 1.2------------
1959-07-01 16.3 21.8 12.9 13.0 83.8- 6.0 3.3---- 0.9------------
1959-07-02 15.4 18.8 12.6 11.6 84.3- 6.3 5.0---- 1.9------------
1959-07-03 15.5 17.9 10.4 9.8 85.8- 6.7 3.0---- 0.1------------
1959-07-04 16.6 19.3 14.8 14.4 85.0- 5.3 2.3---- 0.0------------
1959-07-05 18.5 23.6 13.0 12.2 67.3- 2.7 1.3---- 0.0------------
1959-07-06 21.0 27.7 11.4 8.7 58.8- 1.7 0.7---- 0.0------------
1959-07-07 20.9 28.0 14.7 12.7 76.8- 3.0 3.0---- 2.7------------
1959-07-08 21.8 28.3 10.4 9.0 66.0- 0.0 1.7---- 0.0------------
1959-07-09 25.0 32.4 14.7 12.4 61.3- 1.3 0.3---- 0.0------------
1959-07-10 27.3 35.4 15.7 14.2 53.5- 0.0 1.7---- 0.0------------
1959-07-11 27.7 36.9 17.8 15.9 53.0- 0.7 1.3---- 0.0------------
1959-07-12 28.3 36.3 17.2 15.1 56.5- 0.3 3.3---- 0.0------------
70.1 ms

 

Źródłem pochodzenia danych jest Instytut Meteorologii i Gospodarki Wodnej – Państwowy Instytut Badawczy. Dane Instytutu Meteorologii i Gospodarki Wodnej – Państwowego Instytutu Badawczego zostały przetworzone.

Dane źródłowe można odnaleźć na stronie https://dane.imgw.pl